Corralitos, California
Current Conditions -  °F | °C
As of 6:53 AM on Wednesday 26 Nov 2014 (Local Time) from KWVI Reporting Station
Clear Clear  
Wind Chill: 47°   Ceiling: Unl
Heat Index: 49°   Visibility: 10mi
Dew Point: 39°   Wind: 5mph
Humidity: 69%   Direction: 50°NE
Pressure: 30.28"   Gusts: NA
Location:  36.9274°N, 121.747°W
Report Text: KWVI 261453Z AUTO 05004KT 10SM CLR 09/04 A3028 RMK AO2 SLP254 T00940039 50001
Loading
Personal Weather Stations






























Interactive Weather Map New forecast layout! Learn more

10-Day Weather Forecast

Advertisements
Track Severe Weather on mobile